createdAt,value
2022-10-08T00:01:16.632Z,20.60
2022-10-08T00:03:47.021Z,20.17
2022-10-08T00:06:17.656Z,19.33
2022-10-08T00:08:49.675Z,22.67
2022-10-08T00:11:20.161Z,21.67
2022-10-08T00:13:48.760Z,23.63
2022-10-08T00:16:22.318Z,20.33
2022-10-08T00:18:51.942Z,20.47
2022-10-08T00:21:31.437Z,19.07
2022-10-08T00:23:59.746Z,17.67
2022-10-08T00:26:28.967Z,17.43
2022-10-08T00:28:58.619Z,21.13
2022-10-08T00:31:29.383Z,17.77
2022-10-08T00:33:58.319Z,16.33
2022-10-08T00:36:31.701Z,16.80
2022-10-08T00:39:05.693Z,15.90
2022-10-08T00:41:37.173Z,15.83
2022-10-08T00:44:43.075Z,15.60
2022-10-08T00:47:35.841Z,17.50
2022-10-08T00:50:08.983Z,16.57
2022-10-08T00:52:42.148Z,16.97
2022-10-08T00:55:10.637Z,16.57
2022-10-08T00:57:38.737Z,15.37
2022-10-08T01:00:16.670Z,15.23
2022-10-08T01:02:44.155Z,14.57
2022-10-08T01:05:14.536Z,14.17
2022-10-08T01:07:46.282Z,14.27
2022-10-08T01:10:26.712Z,14.83
2022-10-08T01:13:19.506Z,16.33
2022-10-08T01:15:58.380Z,14.23
2022-10-08T01:18:45.808Z,15.10
2022-10-08T01:21:35.503Z,14.63
2022-10-08T01:24:14.650Z,14.60
2022-10-08T01:27:05.969Z,14.07
2022-10-08T01:29:40.321Z,14.00
2022-10-08T01:32:21.021Z,15.57
2022-10-08T01:34:59.227Z,13.73
2022-10-08T01:37:31.841Z,14.47
2022-10-08T01:40:02.101Z,16.67
2022-10-08T01:42:32.120Z,15.47
2022-10-08T01:45:04.163Z,14.27
2022-10-08T01:47:33.021Z,21.33
2022-10-08T01:50:13.633Z,16.30
2022-10-08T01:52:49.391Z,16.47
2022-10-08T01:55:41.614Z,15.60
2022-10-08T01:58:31.116Z,16.40
2022-10-08T02:01:10.181Z,15.93
2022-10-08T02:03:37.452Z,15.00
2022-10-08T02:06:06.602Z,17.47
2022-10-08T02:08:33.879Z,15.27
2022-10-08T02:11:01.061Z,15.10
2022-10-08T02:13:28.212Z,15.67
2022-10-08T02:16:05.278Z,15.20
2022-10-08T02:18:50.987Z,14.90
2022-10-08T02:21:25.493Z,13.90
2022-10-08T02:24:12.957Z,14.07
2022-10-08T02:26:48.744Z,14.67
2022-10-08T02:29:33.309Z,14.73
2022-10-08T02:32:08.405Z,13.47
2022-10-08T02:34:38.289Z,11.87
2022-10-08T02:37:18.925Z,13.10
2022-10-08T02:40:01.098Z,13.40
2022-10-08T02:42:31.496Z,12.00
2022-10-08T02:45:10.441Z,12.77
2022-10-08T02:47:41.383Z,11.47
2022-10-08T02:50:18.285Z,12.13
2022-10-08T02:52:48.888Z,12.30
2022-10-08T02:55:40.597Z,12.40
2022-10-08T02:58:11.085Z,12.13
2022-10-08T03:00:49.459Z,11.17
2022-10-08T03:03:25.120Z,11.10
2022-10-08T03:05:53.280Z,11.60
2022-10-08T03:08:21.427Z,12.03
2022-10-08T03:10:49.108Z,11.47
2022-10-08T03:13:18.317Z,11.70
2022-10-08T03:15:46.877Z,11.47
2022-10-08T03:18:14.818Z,11.00
2022-10-08T03:20:50.611Z,10.43
2022-10-08T03:23:18.808Z,10.50
2022-10-08T03:25:46.124Z,10.33
2022-10-08T03:28:13.493Z,9.83
2022-10-08T03:30:40.852Z,9.53
2022-10-08T03:33:08.116Z,9.27
2022-10-08T03:35:35.334Z,9.10
2022-10-08T03:38:02.514Z,9.13
2022-10-08T03:40:29.645Z,9.87
2022-10-08T03:42:56.816Z,10.07
2022-10-08T03:45:24.013Z,9.40
2022-10-08T03:47:52.371Z,10.60
2022-10-08T03:50:21.365Z,9.87
2022-10-08T03:52:49.071Z,9.67
2022-10-08T03:55:16.631Z,9.60
2022-10-08T03:57:43.817Z,9.60
2022-10-08T04:00:11.739Z,10.67
2022-10-08T04:02:39.110Z,9.97
2022-10-08T04:05:06.810Z,9.60
2022-10-08T04:07:33.962Z,8.90
2022-10-08T04:10:01.091Z,9.57
2022-10-08T04:12:28.975Z,9.87
2022-10-08T04:14:56.120Z,8.83
2022-10-08T04:17:23.275Z,8.83
2022-10-08T04:19:50.440Z,8.63
2022-10-08T04:22:17.555Z,9.73
2022-10-08T04:24:44.712Z,10.50
2022-10-08T04:27:11.841Z,9.60
2022-10-08T04:29:38.996Z,9.47
2022-10-08T04:32:06.141Z,9.93
2022-10-08T04:34:33.342Z,8.40
2022-10-08T04:37:00.617Z,8.83
2022-10-08T04:39:27.755Z,9.70
2022-10-08T04:41:54.925Z,8.97
2022-10-08T04:44:22.071Z,8.50
2022-10-08T04:46:49.293Z,8.93
2022-10-08T04:49:16.537Z,10.10
2022-10-08T04:51:43.691Z,8.13
2022-10-08T04:54:11.019Z,8.60
2022-10-08T04:56:38.244Z,8.07
2022-10-08T04:59:05.435Z,8.77
2022-10-08T05:01:32.639Z,8.13
2022-10-08T05:04:00.043Z,9.23
2022-10-08T05:06:29.768Z,9.00
2022-10-08T05:08:59.782Z,9.20
2022-10-08T05:11:27.978Z,9.30
2022-10-08T05:13:56.976Z,9.03
2022-10-08T05:16:25.934Z,8.53
2022-10-08T05:18:53.928Z,9.60
2022-10-08T05:21:23.852Z,9.20
2022-10-08T05:24:01.868Z,8.70
2022-10-08T05:26:58.146Z,8.53
2022-10-08T05:29:19.412Z,8.07
2022-10-08T05:31:46.584Z,8.90
2022-10-08T05:34:14.733Z,8.50
2022-10-08T05:36:42.235Z,7.87
2022-10-08T05:39:10.799Z,7.77
2022-10-08T05:41:38.456Z,7.53
2022-10-08T05:44:06.280Z,8.53
2022-10-08T05:46:35.761Z,8.17
2022-10-08T05:49:05.839Z,8.93
2022-10-08T05:51:33.488Z,8.37
2022-10-08T05:54:01.005Z,7.57
2022-10-08T05:56:28.821Z,7.87
2022-10-08T05:58:56.162Z,7.47
2022-10-08T06:01:29.237Z,7.53
2022-10-08T06:03:58.855Z,7.63
2022-10-08T06:06:26.347Z,7.53
2022-10-08T06:08:55.886Z,6.57
2022-10-08T06:11:23.057Z,7.13
2022-10-08T06:13:57.118Z,8.10
2022-10-08T06:16:25.320Z,7.23
2022-10-08T06:18:53.282Z,8.07
2022-10-08T06:21:23.197Z,7.90
2022-10-08T06:23:53.183Z,8.40
2022-10-08T06:26:22.084Z,8.00
2022-10-08T06:28:49.706Z,8.50
2022-10-08T06:31:17.467Z,8.00
2022-10-08T06:33:45.364Z,8.40
2022-10-08T06:36:23.751Z,7.97
2022-10-08T06:38:58.546Z,7.07
2022-10-08T06:41:27.855Z,8.67
2022-10-08T06:43:55.630Z,7.77
2022-10-08T06:46:23.325Z,6.90
2022-10-08T06:48:50.498Z,6.80
2022-10-08T06:51:19.082Z,10.57
2022-10-08T06:53:52.792Z,8.00
2022-10-08T06:56:20.500Z,8.73
2022-10-08T06:58:47.992Z,7.67
2022-10-08T07:01:31.866Z,7.60
2022-10-08T07:04:03.273Z,7.30
2022-10-08T07:06:30.498Z,6.90
2022-10-08T07:09:00.953Z,8.03
2022-10-08T07:11:30.094Z,8.43
2022-10-08T07:13:57.486Z,7.00
2022-10-08T07:16:26.126Z,7.43
2022-10-08T07:18:55.071Z,7.23
2022-10-08T07:21:22.992Z,7.47
2022-10-08T07:23:50.787Z,7.50
2022-10-08T07:26:23.037Z,6.60
2022-10-08T07:28:51.911Z,7.30
2022-10-08T07:31:21.968Z,8.57
2022-10-08T07:33:49.189Z,7.70
2022-10-08T07:36:21.408Z,6.93
2022-10-08T07:38:53.097Z,7.20
2022-10-08T07:41:20.291Z,7.17
2022-10-08T07:43:52.350Z,6.80
2022-10-08T07:46:20.481Z,6.83
2022-10-08T07:48:47.748Z,6.47
2022-10-08T07:51:20.096Z,7.50
2022-10-08T07:53:47.558Z,7.30
2022-10-08T07:56:17.267Z,7.10
2022-10-08T07:58:44.789Z,9.37
2022-10-08T08:01:14.753Z,9.87
2022-10-08T08:03:42.353Z,7.20
2022-10-08T08:06:15.590Z,8.93
2022-10-08T08:08:44.274Z,7.80
2022-10-08T08:11:15.046Z,6.70
2022-10-08T08:13:43.021Z,5.97
2022-10-08T08:16:16.199Z,6.43
2022-10-08T08:18:46.592Z,6.30
2022-10-08T08:21:21.109Z,8.03
2022-10-08T08:23:50.883Z,5.73
2022-10-08T08:26:23.945Z,6.13
2022-10-08T08:28:56.764Z,7.20
2022-10-08T08:31:32.785Z,6.70
2022-10-08T08:34:03.356Z,5.93
2022-10-08T08:36:33.051Z,5.57
2022-10-08T08:39:01.044Z,6.30
2022-10-08T08:41:52.083Z,6.20
2022-10-08T08:44:25.377Z,5.63
2022-10-08T08:47:13.980Z,6.67
2022-10-08T08:49:56.760Z,5.80
2022-10-08T08:52:28.535Z,5.30
2022-10-08T08:54:56.027Z,5.93
2022-10-08T08:57:54.992Z,5.60
2022-10-08T09:00:26.053Z,5.60
2022-10-08T09:03:04.055Z,5.70
2022-10-08T09:05:35.183Z,5.63
2022-10-08T09:08:05.907Z,5.40
2022-10-08T09:10:56.982Z,5.73
2022-10-08T09:13:46.223Z,5.03
2022-10-08T09:16:14.771Z,8.67
2022-10-08T09:18:47.177Z,6.53
2022-10-08T09:21:14.719Z,9.53
2022-10-08T09:23:42.323Z,5.90
2022-10-08T09:26:20.499Z,5.77
2022-10-08T09:28:55.299Z,6.13
2022-10-08T09:31:48.749Z,6.50
2022-10-08T09:34:17.532Z,6.40
2022-10-08T09:37:03.470Z,5.53
2022-10-08T09:39:33.817Z,6.00
2022-10-08T09:42:14.038Z,4.80
2022-10-08T09:44:48.885Z,5.67
2022-10-08T09:47:19.134Z,5.63
2022-10-08T09:50:01.291Z,5.80
2022-10-08T09:52:29.147Z,5.07
2022-10-08T09:55:09.625Z,5.20
2022-10-08T09:57:44.793Z,5.27
2022-10-08T10:00:35.221Z,5.23
2022-10-08T10:03:05.574Z,5.53
2022-10-08T10:05:35.566Z,5.30
2022-10-08T10:08:03.443Z,6.23
2022-10-08T10:10:44.989Z,5.57
2022-10-08T10:13:17.291Z,5.97
2022-10-08T10:15:50.575Z,4.80
2022-10-08T10:18:29.099Z,5.67
2022-10-08T10:21:08.209Z,5.03
2022-10-08T10:23:41.295Z,5.50
2022-10-08T10:26:39.125Z,5.03
2022-10-08T10:29:16.952Z,5.70
2022-10-08T10:32:02.487Z,5.03
2022-10-08T10:34:33.199Z,5.27
2022-10-08T10:37:04.787Z,5.10
2022-10-08T10:40:13.639Z,5.70
2022-10-08T10:42:50.571Z,5.70
2022-10-08T10:45:24.788Z,5.03
2022-10-08T10:47:54.097Z,4.90
2022-10-08T10:50:56.772Z,5.53
2022-10-08T10:53:48.873Z,5.43
2022-10-08T10:56:21.375Z,22.00
2022-10-08T10:59:13.269Z,8.47
2022-10-08T11:02:03.435Z,5.60
2022-10-08T11:04:48.415Z,5.80
2022-10-08T11:07:41.244Z,5.90
2022-10-08T11:10:14.456Z,6.00
2022-10-08T11:12:50.495Z,6.70
2022-10-08T11:15:30.826Z,6.13
2022-10-08T11:18:03.505Z,5.73
2022-10-08T11:20:49.861Z,5.87
2022-10-08T11:24:00.118Z,5.53
2022-10-08T11:26:56.345Z,6.20
2022-10-08T11:29:31.300Z,5.97
2022-10-08T11:31:58.884Z,5.77
2022-10-08T11:34:31.524Z,6.33
2022-10-08T11:37:18.924Z,5.70
2022-10-08T11:40:04.565Z,5.40
2022-10-08T11:42:48.117Z,6.00
2022-10-08T11:45:30.456Z,17.47
2022-10-08T11:48:00.499Z,6.63
2022-10-08T11:50:30.468Z,7.53
2022-10-08T11:53:21.473Z,6.70
2022-10-08T11:55:55.426Z,6.90
2022-10-08T11:58:30.351Z,7.03
2022-10-08T12:01:08.625Z,7.93
2022-10-08T12:03:42.843Z,6.77
2022-10-08T12:06:18.104Z,6.87
2022-10-08T12:08:59.586Z,6.50
2022-10-08T12:11:29.776Z,6.37
2022-10-08T12:14:12.187Z,6.93
2022-10-08T12:16:48.759Z,7.37
2022-10-08T12:19:34.683Z,6.30
2022-10-08T12:22:04.890Z,29.90
2022-10-08T12:24:38.169Z,8.57
2022-10-08T12:27:17.543Z,7.57
2022-10-08T12:30:10.891Z,6.83
2022-10-08T12:32:44.205Z,7.23
2022-10-08T12:35:24.269Z,6.70
2022-10-08T12:38:02.468Z,10.73
2022-10-08T12:40:42.731Z,6.53
2022-10-08T12:43:40.998Z,7.60
2022-10-08T12:46:34.048Z,7.20
2022-10-08T12:49:23.230Z,7.40
2022-10-08T12:52:01.349Z,6.87
2022-10-08T12:54:30.205Z,7.37
2022-10-08T12:56:58.644Z,7.40
2022-10-08T12:59:31.461Z,7.20
2022-10-08T13:01:59.152Z,7.50
2022-10-08T13:04:32.192Z,7.73
2022-10-08T13:06:59.615Z,43.27
2022-10-08T13:09:29.880Z,8.00
2022-10-08T13:12:03.503Z,7.60
2022-10-08T13:14:33.587Z,7.50
2022-10-08T13:17:01.132Z,7.03
2022-10-08T13:19:31.883Z,7.17
2022-10-08T13:22:30.668Z,7.23
2022-10-08T13:24:57.822Z,7.67
2022-10-08T13:27:31.729Z,7.53
2022-10-08T13:30:00.355Z,8.10
2022-10-08T13:32:35.147Z,7.87
2022-10-08T13:35:04.766Z,8.70
2022-10-08T13:37:37.842Z,8.80
2022-10-08T13:40:10.941Z,8.87
2022-10-08T13:42:50.756Z,9.93
2022-10-08T13:45:21.011Z,9.57
2022-10-08T13:47:48.864Z,10.60
2022-10-08T13:50:17.202Z,10.47
2022-10-08T13:52:54.649Z,10.70
2022-10-08T13:55:28.279Z,11.37
2022-10-08T13:57:56.978Z,11.73
2022-10-08T14:00:24.518Z,11.93
2022-10-08T14:02:52.183Z,12.33
2022-10-08T14:05:23.816Z,12.70
2022-10-08T14:07:55.085Z,13.90
2022-10-08T14:10:22.611Z,31.87
2022-10-08T14:12:49.877Z,13.63
2022-10-08T14:15:18.221Z,12.70
2022-10-08T14:17:45.629Z,22.20
2022-10-08T14:20:13.069Z,12.67
2022-10-08T14:22:40.353Z,13.60
2022-10-08T14:25:20.037Z,12.90
2022-10-08T14:27:47.616Z,12.90
2022-10-08T14:30:16.490Z,14.87
2022-10-08T14:32:44.350Z,13.57
2022-10-08T14:35:12.640Z,13.67
2022-10-08T14:37:40.717Z,14.73
2022-10-08T14:40:11.727Z,15.30
2022-10-08T14:42:38.872Z,15.43
2022-10-08T14:45:06.527Z,15.00
2022-10-08T14:47:33.960Z,16.13
2022-10-08T14:50:01.140Z,15.70
2022-10-08T14:52:28.322Z,15.93
2022-10-08T14:54:55.475Z,16.43
2022-10-08T14:57:22.994Z,16.40
2022-10-08T14:59:50.136Z,16.57
2022-10-08T15:02:18.497Z,16.93
2022-10-08T15:04:45.692Z,14.53
2022-10-08T15:07:12.836Z,15.03
2022-10-08T15:09:40.587Z,13.50
2022-10-08T15:12:08.388Z,13.07
2022-10-08T15:14:38.120Z,13.47
2022-10-08T15:17:05.858Z,12.60
2022-10-08T15:19:33.012Z,13.20
2022-10-08T15:22:00.274Z,13.53
2022-10-08T15:24:27.449Z,13.90
2022-10-08T15:26:54.630Z,17.87
2022-10-08T15:29:21.913Z,14.93
2022-10-08T15:31:52.429Z,14.33
2022-10-08T15:34:20.501Z,14.57
2022-10-08T15:36:47.696Z,14.50
2022-10-08T15:39:19.020Z,14.33
2022-10-08T15:41:48.569Z,14.20
2022-10-08T15:44:19.380Z,16.77
2022-10-08T15:46:47.798Z,14.00
2022-10-08T15:49:15.519Z,13.90
2022-10-08T15:51:42.777Z,15.03
2022-10-08T15:54:09.960Z,14.13
2022-10-08T15:56:37.183Z,14.77
2022-10-08T15:59:04.739Z,15.43
2022-10-08T16:01:33.099Z,15.97
2022-10-08T16:04:01.032Z,14.53
2022-10-08T16:06:33.468Z,14.37
2022-10-08T16:09:01.004Z,15.00
2022-10-08T16:11:32.088Z,16.63
2022-10-08T16:14:08.432Z,16.20
2022-10-08T16:16:36.487Z,16.13
2022-10-08T16:19:09.067Z,17.93
2022-10-08T16:21:39.635Z,17.07
2022-10-08T16:24:06.896Z,18.77
2022-10-08T16:26:35.404Z,15.93
2022-10-08T16:29:08.484Z,15.67
2022-10-08T16:31:37.296Z,16.40
2022-10-08T16:34:12.145Z,17.80
2022-10-08T16:36:39.594Z,16.47
2022-10-08T16:39:08.168Z,18.57
2022-10-08T16:41:37.236Z,17.60
2022-10-08T16:44:12.642Z,21.17
2022-10-08T16:46:48.269Z,16.87
2022-10-08T16:49:24.240Z,19.53
2022-10-08T16:52:00.415Z,20.90
2022-10-08T16:54:28.200Z,23.33
2022-10-08T16:56:56.548Z,19.13
2022-10-08T16:59:25.999Z,20.20
2022-10-08T17:01:55.513Z,21.07
2022-10-08T17:04:24.013Z,21.90
2022-10-08T17:06:51.435Z,21.60
2022-10-08T17:09:18.668Z,22.70
2022-10-08T17:11:46.252Z,21.37
2022-10-08T17:14:13.593Z,20.27
2022-10-08T17:16:43.280Z,19.07
2022-10-08T17:19:11.256Z,21.73
2022-10-08T17:21:38.431Z,19.17
2022-10-08T17:24:05.782Z,14.97
2022-10-08T17:26:33.434Z,15.93
2022-10-08T17:29:09.017Z,14.70
2022-10-08T17:31:37.166Z,14.63
2022-10-08T17:34:05.261Z,15.30
2022-10-08T17:36:35.099Z,14.37
2022-10-08T17:39:05.297Z,10.60
2022-10-08T17:41:35.300Z,10.30
2022-10-08T17:44:05.412Z,9.57
2022-10-08T17:46:45.696Z,8.63
2022-10-08T17:49:18.048Z,7.90
2022-10-08T17:51:45.863Z,8.27
2022-10-08T17:54:15.171Z,8.20
2022-10-08T17:56:42.686Z,7.00
2022-10-08T17:59:15.570Z,7.40
2022-10-08T18:01:45.352Z,7.43
2022-10-08T18:04:15.528Z,6.70
2022-10-08T18:06:45.895Z,6.77
2022-10-08T18:09:21.994Z,7.40
2022-10-08T18:11:53.093Z,7.40
2022-10-08T18:14:21.571Z,7.20
2022-10-08T18:16:49.348Z,6.20
2022-10-08T18:19:17.990Z,7.07
2022-10-08T18:21:45.499Z,6.80
2022-10-08T18:24:13.032Z,6.40
2022-10-08T18:26:40.228Z,6.50
2022-10-08T18:29:10.716Z,5.73
2022-10-08T18:31:39.813Z,6.30
2022-10-08T18:34:09.734Z,6.43
2022-10-08T18:36:38.456Z,6.87
2022-10-08T18:39:09.676Z,6.67
2022-10-08T18:41:41.071Z,6.13
2022-10-08T18:44:12.027Z,6.73
2022-10-08T18:46:40.076Z,7.33
2022-10-08T18:49:07.369Z,6.73
2022-10-08T18:51:34.861Z,11.10
2022-10-08T18:54:02.210Z,8.17
2022-10-08T18:56:34.356Z,8.30
2022-10-08T18:59:04.883Z,8.53
2022-10-08T19:01:34.497Z,7.83
2022-10-08T19:04:04.821Z,7.57
2022-10-08T19:06:37.518Z,7.90
2022-10-08T19:09:06.451Z,8.10
2022-10-08T19:11:40.698Z,8.17
2022-10-08T19:14:13.537Z,8.30
2022-10-08T19:16:41.469Z,7.87
2022-10-08T19:19:22.409Z,6.53
2022-10-08T19:21:50.508Z,7.33
2022-10-08T19:24:23.617Z,8.00
2022-10-08T19:26:51.691Z,8.30
2022-10-08T19:29:24.262Z,8.40
2022-10-08T19:31:51.724Z,7.80
2022-10-08T19:34:22.230Z,8.23
2022-10-08T19:36:49.679Z,9.07
2022-10-08T19:39:19.717Z,9.00
2022-10-08T19:41:47.060Z,9.47
2022-10-08T19:44:16.387Z,9.77
2022-10-08T19:46:43.760Z,9.80
2022-10-08T19:49:11.680Z,10.47
2022-10-08T19:51:39.385Z,11.30
2022-10-08T19:54:06.937Z,11.87
2022-10-08T19:56:35.703Z,12.03
2022-10-08T19:59:03.051Z,12.30
2022-10-08T20:01:33.533Z,12.20
2022-10-08T20:04:02.227Z,11.70
2022-10-08T20:06:31.878Z,12.60
2022-10-08T20:09:01.457Z,12.20
2022-10-08T20:11:30.463Z,13.13
2022-10-08T20:13:58.662Z,11.90
2022-10-08T20:16:31.931Z,11.30
2022-10-08T20:19:01.523Z,11.93
2022-10-08T20:21:30.996Z,12.13
2022-10-08T20:23:58.372Z,13.30
2022-10-08T20:26:27.421Z,12.87
2022-10-08T20:28:58.254Z,12.83
2022-10-08T20:31:28.885Z,11.57
2022-10-08T20:34:01.195Z,12.17
2022-10-08T20:36:29.434Z,12.87
2022-10-08T20:38:57.594Z,14.70
2022-10-08T20:41:30.471Z,14.30
2022-10-08T20:44:03.208Z,13.23
2022-10-08T20:46:32.126Z,14.63
2022-10-08T20:48:59.699Z,15.77
2022-10-08T20:51:28.274Z,11.83
2022-10-08T20:54:00.985Z,14.13
2022-10-08T20:56:30.031Z,13.50
2022-10-08T20:58:58.109Z,15.43
2022-10-08T21:01:30.819Z,15.37
2022-10-08T21:04:00.407Z,14.90
2022-10-08T21:06:30.676Z,14.57
2022-10-08T21:08:59.199Z,15.03
2022-10-08T21:11:29.279Z,14.13
2022-10-08T21:13:58.604Z,16.07
2022-10-08T21:16:30.030Z,15.87
2022-10-08T21:19:03.058Z,14.10
2022-10-08T21:21:31.779Z,15.77
2022-10-08T21:23:59.896Z,9.70
2022-10-08T21:26:29.459Z,9.73
2022-10-08T21:28:58.695Z,8.87
2022-10-08T21:31:27.693Z,6.53
2022-10-08T21:33:55.632Z,7.70
2022-10-08T21:36:28.415Z,8.00
2022-10-08T21:38:55.874Z,6.10
2022-10-08T21:41:24.538Z,6.90
2022-10-08T21:43:54.051Z,7.47
2022-10-08T21:46:24.408Z,7.70
2022-10-08T21:48:59.513Z,7.10
2022-10-08T21:51:28.192Z,6.53
2022-10-08T21:53:58.102Z,6.27
2022-10-08T21:56:28.168Z,7.13
2022-10-08T21:58:58.195Z,7.23
2022-10-08T22:01:36.705Z,7.40
2022-10-08T22:04:08.004Z,7.27
2022-10-08T22:06:37.992Z,7.00
2022-10-08T22:09:07.049Z,7.67
2022-10-08T22:11:34.751Z,7.10
2022-10-08T22:14:01.893Z,7.80
2022-10-08T22:16:29.737Z,7.10
2022-10-08T22:18:57.924Z,7.30
2022-10-08T22:21:25.119Z,7.57
2022-10-08T22:23:52.890Z,7.20
2022-10-08T22:26:22.799Z,6.47
2022-10-08T22:28:50.752Z,5.60
2022-10-08T22:31:19.497Z,6.17
2022-10-08T22:33:47.316Z,6.43
2022-10-08T22:36:17.524Z,7.40
2022-10-08T22:38:45.827Z,7.83
2022-10-08T22:41:16.241Z,8.10
2022-10-08T22:43:44.060Z,9.07
2022-10-08T22:46:14.825Z,7.40
2022-10-08T22:48:42.147Z,7.53
2022-10-08T22:51:18.486Z,6.93
2022-10-08T22:53:46.517Z,6.63
2022-10-08T22:56:17.175Z,7.80
2022-10-08T22:58:45.667Z,7.40
2022-10-08T23:01:16.388Z,7.33
2022-10-08T23:03:44.400Z,7.27
2022-10-08T23:06:24.201Z,8.10
2022-10-08T23:08:57.084Z,7.93
2022-10-08T23:11:24.999Z,7.67
2022-10-08T23:13:53.915Z,7.77
2022-10-08T23:16:21.300Z,7.90
2022-10-08T23:18:58.782Z,7.50
2022-10-08T23:21:27.070Z,8.40
2022-10-08T23:23:55.440Z,7.83
2022-10-08T23:26:23.619Z,7.40
2022-10-08T23:28:52.951Z,8.47
2022-10-08T23:31:23.486Z,7.10
2022-10-08T23:33:52.555Z,7.40
2022-10-08T23:36:25.359Z,7.60
2022-10-08T23:38:52.865Z,7.50
2022-10-08T23:41:20.536Z,8.40
2022-10-08T23:43:49.753Z,8.50
2022-10-08T23:46:19.849Z,6.53
2022-10-08T23:48:49.320Z,7.23
2022-10-08T23:51:17.751Z,7.70
2022-10-08T23:53:45.898Z,7.93
2022-10-08T23:56:13.723Z,8.03
2022-10-08T23:58:41.291Z,8.90
